createdAt,value
2022-09-27T00:02:17.444Z,67.31
2022-09-27T00:04:46.914Z,67.18
2022-09-27T00:07:14.938Z,67.76
2022-09-27T00:09:42.849Z,67.32
2022-09-27T00:12:11.333Z,67.16
2022-09-27T00:14:39.407Z,67.32
2022-09-27T00:17:07.390Z,67.54
2022-09-27T00:19:35.480Z,67.22
2022-09-27T00:22:04.841Z,67.22
2022-09-27T00:24:34.640Z,67.00
2022-09-27T00:27:03.606Z,67.42
2022-09-27T00:29:31.822Z,67.88
2022-09-27T00:32:01.351Z,68.30
2022-09-27T00:34:29.394Z,68.54
2022-09-27T00:37:00.809Z,68.63
2022-09-27T00:39:30.862Z,68.53
2022-09-27T00:41:58.953Z,68.48
2022-09-27T00:45:02.494Z,68.53
2022-09-27T00:47:36.549Z,68.47
2022-09-27T00:50:09.080Z,68.72
2022-09-27T00:52:48.208Z,67.94
2022-09-27T00:55:21.770Z,67.99
2022-09-27T00:57:50.320Z,67.95
2022-09-27T01:00:19.990Z,67.68
2022-09-27T01:02:51.251Z,67.74
2022-09-27T01:05:25.083Z,68.26
2022-09-27T01:08:45.254Z,68.72
2022-09-27T01:11:43.851Z,69.05
2022-09-27T01:14:34.828Z,69.03
2022-09-27T01:17:09.673Z,69.16
2022-09-27T01:20:12.444Z,70.13
2022-09-27T01:22:45.707Z,70.86
2022-09-27T01:25:30.568Z,70.16
2022-09-27T01:28:31.545Z,70.69
2022-09-27T01:31:05.095Z,70.31
2022-09-27T01:33:45.118Z,70.15
2022-09-27T01:36:21.884Z,69.83
2022-09-27T01:39:08.563Z,69.78
2022-09-27T01:42:03.890Z,69.81
2022-09-27T01:44:46.811Z,70.18
2022-09-27T01:47:24.105Z,71.07
2022-09-27T01:50:05.576Z,70.59
2022-09-27T01:52:40.789Z,70.34
2022-09-27T01:55:15.316Z,69.71
2022-09-27T01:57:56.747Z,69.10
2022-09-27T02:00:27.640Z,67.53
2022-09-27T02:03:02.738Z,67.49
2022-09-27T02:05:43.594Z,66.87
2022-09-27T02:08:42.881Z,66.64
2022-09-27T02:11:22.060Z,68.61
2022-09-27T02:14:04.613Z,68.73
2022-09-27T02:16:54.114Z,69.49
2022-09-27T02:19:40.449Z,69.78
2022-09-27T02:22:19.981Z,69.36
2022-09-27T02:24:57.133Z,68.50
2022-09-27T02:32:11.844Z,67.92
2022-09-27T02:34:43.514Z,67.88
2022-09-27T02:37:12.410Z,67.75
2022-09-27T02:39:40.490Z,68.25
2022-09-27T02:42:09.630Z,68.29
2022-09-27T02:44:40.330Z,68.15
2022-09-27T02:47:30.406Z,68.84
2022-09-27T02:50:39.034Z,68.95
2022-09-27T02:53:27.367Z,70.08
2022-09-27T02:56:10.646Z,70.44
2022-09-27T02:59:12.066Z,71.02
2022-09-27T03:02:13.419Z,71.93
2022-09-27T03:05:18.136Z,71.88
2022-09-27T03:07:48.496Z,73.71
2022-09-27T03:10:21.394Z,73.23
2022-09-27T03:12:50.332Z,72.99
2022-09-27T03:15:18.508Z,72.77
2022-09-27T03:17:55.733Z,71.40
2022-09-27T03:20:38.569Z,71.17
2022-09-27T03:23:11.632Z,70.74
2022-09-27T03:25:39.801Z,70.51
2022-09-27T03:28:08.288Z,70.95
2022-09-27T03:30:37.294Z,70.98
2022-09-27T03:33:05.478Z,71.23
2022-09-27T03:35:43.685Z,71.56
2022-09-27T03:38:13.001Z,71.84
2022-09-27T03:40:41.574Z,72.06
2022-09-27T03:43:11.010Z,71.54
2022-09-27T03:45:38.960Z,72.25
2022-09-27T03:48:10.282Z,71.60
2022-09-27T03:50:38.413Z,71.19
2022-09-27T03:53:07.377Z,70.98
2022-09-27T03:55:37.040Z,71.97
2022-09-27T03:58:05.225Z,72.33
2022-09-27T04:00:33.721Z,72.79
2022-09-27T04:03:01.774Z,73.03
2022-09-27T04:05:30.529Z,73.29
2022-09-27T04:08:06.331Z,74.09
2022-09-27T04:10:36.864Z,74.23
2022-09-27T04:13:05.683Z,74.12
2022-09-27T04:15:39.530Z,74.36
2022-09-27T04:18:39.743Z,74.39
2022-09-27T04:21:39.890Z,74.13
2022-09-27T04:24:11.988Z,74.37
2022-09-27T04:26:44.618Z,73.88
2022-09-27T04:29:15.033Z,73.56
2022-09-27T04:31:49.760Z,73.23
2022-09-27T04:35:10.770Z,72.72
2022-09-27T04:37:38.871Z,73.26
2022-09-27T04:40:07.546Z,73.09
2022-09-27T04:42:37.841Z,72.71
2022-09-27T04:45:07.643Z,72.44
2022-09-27T04:47:36.411Z,72.53
2022-09-27T04:50:05.193Z,71.88
2022-09-27T04:52:33.520Z,72.02
2022-09-27T04:55:01.397Z,71.75
2022-09-27T04:57:31.915Z,71.78
2022-09-27T05:00:01.865Z,71.44
2022-09-27T05:02:30.766Z,70.51
2022-09-27T05:05:18.702Z,70.26
2022-09-27T05:07:46.777Z,70.12
2022-09-27T05:10:27.215Z,70.92
2022-09-27T05:12:55.499Z,70.79
2022-09-27T05:15:24.945Z,70.16
2022-09-27T05:18:11.953Z,70.08
2022-09-27T05:20:40.067Z,69.86
2022-09-27T05:23:13.426Z,69.43
2022-09-27T05:25:42.597Z,69.74
2022-09-27T05:28:10.945Z,69.91
2022-09-27T05:30:40.564Z,69.75
2022-09-27T05:33:14.161Z,69.65
2022-09-27T05:35:47.718Z,69.73
2022-09-27T05:38:16.094Z,70.15
2022-09-27T05:40:50.860Z,69.49
2022-09-27T05:43:19.986Z,69.61
2022-09-27T05:45:49.303Z,69.62
2022-09-27T05:48:20.437Z,69.32
2022-09-27T05:51:08.417Z,69.05
2022-09-27T05:53:39.728Z,68.95
2022-09-27T05:56:13.625Z,68.80
2022-09-27T05:59:14.715Z,68.72
2022-09-27T06:02:19.666Z,68.58
2022-09-27T06:05:20.079Z,68.46
2022-09-27T06:08:08.601Z,68.66
2022-09-27T06:10:42.546Z,68.49
2022-09-27T06:13:13.433Z,68.27
2022-09-27T06:15:44.819Z,68.47
2022-09-27T06:18:18.460Z,68.54
2022-09-27T06:20:49.656Z,68.14
2022-09-27T06:23:20.049Z,68.16
2022-09-27T06:25:51.655Z,68.48
2022-09-27T06:28:40.084Z,68.20
2022-09-27T06:31:09.568Z,68.01
2022-09-27T06:33:49.999Z,68.21
2022-09-27T06:36:19.030Z,68.47
2022-09-27T06:38:48.268Z,69.27
2022-09-27T06:41:22.411Z,69.30
2022-09-27T06:43:58.012Z,70.07
2022-09-27T06:46:44.772Z,69.87
2022-09-27T06:49:14.250Z,69.77
2022-09-27T06:51:43.240Z,69.47
2022-09-27T06:54:11.314Z,69.73
2022-09-27T06:56:39.206Z,69.61
2022-09-27T06:59:25.107Z,69.39
2022-09-27T07:02:19.685Z,69.79
2022-09-27T07:05:00.898Z,70.01
2022-09-27T07:07:48.837Z,70.14
2022-09-27T07:10:18.223Z,69.88
2022-09-27T07:12:48.912Z,70.17
2022-09-27T07:15:17.910Z,70.07
2022-09-27T07:17:46.130Z,70.32
2022-09-27T07:20:17.340Z,70.53
2022-09-27T07:22:46.540Z,70.61
2022-09-27T07:25:15.518Z,71.21
2022-09-27T07:27:43.671Z,71.10
2022-09-27T07:30:13.749Z,71.18
2022-09-27T07:32:42.379Z,71.58
2022-09-27T07:35:15.236Z,71.58
2022-09-27T07:37:45.629Z,71.49
2022-09-27T07:40:15.291Z,71.80
2022-09-27T07:42:43.461Z,71.68
2022-09-27T07:45:12.702Z,71.81
2022-09-27T07:48:13.852Z,71.78
2022-09-27T07:51:07.820Z,72.56
2022-09-27T07:53:52.852Z,71.98
2022-09-27T07:56:47.147Z,71.71
2022-09-27T07:59:17.616Z,71.36
2022-09-27T08:01:46.790Z,71.81
2022-09-27T08:04:14.937Z,71.87
2022-09-27T08:06:43.317Z,71.94
2022-09-27T08:09:12.699Z,71.87
2022-09-27T08:11:42.987Z,71.50
2022-09-27T08:14:11.868Z,71.41
2022-09-27T08:16:42.559Z,71.12
2022-09-27T08:19:22.744Z,71.47
2022-09-27T08:22:11.020Z,71.16
2022-09-27T08:24:48.095Z,71.58
2022-09-27T08:27:36.175Z,70.84
2022-09-27T08:30:17.141Z,71.10
2022-09-27T08:32:46.130Z,71.26
2022-09-27T08:35:15.755Z,70.57
2022-09-27T08:37:43.629Z,70.10
2022-09-27T08:40:17.876Z,70.47
2022-09-27T08:42:57.864Z,70.81
2022-09-27T08:45:33.917Z,71.78
2022-09-27T08:48:07.046Z,71.37
2022-09-27T08:50:40.323Z,71.53
2022-09-27T08:53:21.409Z,71.56
2022-09-27T08:55:53.767Z,72.07
2022-09-27T08:58:35.910Z,71.32
2022-09-27T09:01:14.335Z,70.85
2022-09-27T09:03:51.800Z,70.81
2022-09-27T09:06:25.388Z,71.28
2022-09-27T09:09:03.874Z,72.02
2022-09-27T09:12:05.330Z,72.04
2022-09-27T09:14:45.789Z,71.88
2022-09-27T09:17:27.564Z,71.34
2022-09-27T09:20:28.471Z,70.99
2022-09-27T09:23:18.503Z,71.42
2022-09-27T09:25:56.035Z,71.01
2022-09-27T09:28:45.358Z,70.73
2022-09-27T09:31:22.291Z,70.27
2022-09-27T09:33:55.888Z,69.73
2022-09-27T09:36:27.750Z,68.84
2022-09-27T09:38:58.079Z,69.02
2022-09-27T09:41:30.533Z,69.36
2022-09-27T09:44:03.573Z,69.60
2022-09-27T09:46:40.191Z,69.26
2022-09-27T09:49:19.576Z,69.94
2022-09-27T09:51:52.240Z,69.67
2022-09-27T09:54:25.624Z,69.22
2022-09-27T09:57:03.539Z,69.29
2022-09-27T09:59:39.284Z,69.71
2022-09-27T10:02:22.573Z,70.34
2022-09-27T10:04:50.997Z,69.83
2022-09-27T10:07:23.374Z,69.25
2022-09-27T10:09:53.534Z,69.19
2022-09-27T10:12:41.658Z,69.77
2022-09-27T10:15:17.645Z,69.45
2022-09-27T10:17:51.334Z,69.32
2022-09-27T10:20:31.251Z,68.84
2022-09-27T10:23:05.473Z,68.55
2022-09-27T10:25:53.282Z,69.42
2022-09-27T10:28:43.382Z,69.67
2022-09-27T10:31:15.393Z,70.29
2022-09-27T10:34:06.244Z,70.29
2022-09-27T10:36:41.757Z,70.77
2022-09-27T10:39:23.890Z,71.48
2022-09-27T10:41:52.843Z,71.39
2022-09-27T10:44:31.116Z,71.62
2022-09-27T10:47:26.344Z,71.59
2022-09-27T10:50:07.862Z,71.07
2022-09-27T10:53:04.555Z,69.63
2022-09-27T10:55:36.143Z,70.04
2022-09-27T10:58:05.392Z,69.76
2022-09-27T11:00:36.374Z,68.12
2022-09-27T11:03:14.546Z,68.87
2022-09-27T11:05:43.282Z,68.30
2022-09-27T11:08:25.996Z,66.84
2022-09-27T11:11:08.834Z,66.30
2022-09-27T11:13:39.448Z,66.94
2022-09-27T11:16:29.930Z,67.01
2022-09-27T11:19:15.227Z,67.14
2022-09-27T11:21:52.597Z,67.03
2022-09-27T11:24:37.900Z,67.98
2022-09-27T11:27:20.588Z,67.91
2022-09-27T11:30:04.496Z,67.84
2022-09-27T11:33:13.025Z,67.59
2022-09-27T11:35:57.022Z,67.97
2022-09-27T11:41:32.632Z,67.76
2022-09-27T11:44:19.902Z,68.77
2022-09-27T11:46:54.133Z,69.76
2022-09-27T11:49:48.053Z,69.70
2022-09-27T11:52:29.805Z,70.03
2022-09-27T11:55:16.438Z,65.04
2022-09-27T11:57:54.326Z,63.84
2022-09-27T12:00:24.587Z,64.41
2022-09-27T12:03:48.001Z,64.66
2022-09-27T12:06:23.138Z,64.71
2022-09-27T12:09:03.884Z,65.09
2022-09-27T12:11:38.675Z,65.86
2022-09-27T12:14:13.494Z,65.31
2022-09-27T12:16:42.829Z,64.91
2022-09-27T12:19:19.705Z,64.85
2022-09-27T12:21:55.809Z,64.64
2022-09-27T12:24:26.435Z,64.95
2022-09-27T12:27:09.903Z,65.58
2022-09-27T12:29:41.936Z,65.35
2022-09-27T12:32:16.811Z,65.76
2022-09-27T12:34:52.965Z,65.91
2022-09-27T12:37:26.240Z,65.86
2022-09-27T12:40:01.704Z,65.96
2022-09-27T12:45:40.960Z,66.08
2022-09-27T12:48:18.853Z,66.35
2022-09-27T12:50:56.933Z,67.00
2022-09-27T12:53:30.461Z,66.67
2022-09-27T12:56:21.574Z,67.26
2022-09-27T12:59:02.953Z,67.72
2022-09-27T13:01:45.504Z,67.37
2022-09-27T13:04:37.181Z,67.59
2022-09-27T13:07:24.287Z,67.20
2022-09-27T13:10:17.433Z,66.99
2022-09-27T13:12:54.626Z,64.98
2022-09-27T13:15:29.564Z,65.18
2022-09-27T13:18:00.112Z,65.08
2022-09-27T13:20:49.114Z,65.12
2022-09-27T13:23:52.694Z,65.04
2022-09-27T13:26:40.604Z,64.79
2022-09-27T13:29:23.161Z,64.69
2022-09-27T13:32:18.527Z,64.20
2022-09-27T13:35:14.458Z,63.73
2022-09-27T13:37:55.434Z,64.74
2022-09-27T13:40:32.542Z,65.31
2022-09-27T13:43:48.811Z,66.17
2022-09-27T13:46:49.690Z,66.27
2022-09-27T13:49:26.566Z,66.05
2022-09-27T13:52:26.556Z,66.72
2022-09-27T13:55:29.604Z,66.71
2022-09-27T13:58:01.520Z,66.74
2022-09-27T14:00:35.837Z,67.15
2022-09-27T14:03:08.611Z,67.90
2022-09-27T14:05:41.863Z,67.84
2022-09-27T14:08:25.014Z,68.31
2022-09-27T14:10:53.970Z,68.43
2022-09-27T14:13:25.417Z,68.86
2022-09-27T14:16:04.687Z,69.13
2022-09-27T14:18:37.681Z,69.99
2022-09-27T14:21:18.728Z,70.70
2022-09-27T14:23:55.418Z,70.96
2022-09-27T14:26:25.852Z,69.13
2022-09-27T14:28:54.713Z,69.42
2022-09-27T14:31:29.700Z,69.03
2022-09-27T14:34:18.158Z,68.02
2022-09-27T14:37:08.356Z,67.62
2022-09-27T14:39:57.641Z,68.13
2022-09-27T14:42:36.733Z,68.08
2022-09-27T14:45:22.787Z,68.89
2022-09-27T14:47:52.229Z,68.83
2022-09-27T14:50:24.847Z,68.77
2022-09-27T14:52:57.600Z,68.54
2022-09-27T14:55:28.337Z,68.02
2022-09-27T14:57:58.064Z,67.61
2022-09-27T15:00:32.121Z,68.12
2022-09-27T15:03:03.279Z,67.19
2022-09-27T15:05:35.426Z,67.55
2022-09-27T15:08:06.514Z,67.61
2022-09-27T15:10:36.867Z,67.62
2022-09-27T15:13:06.947Z,67.33
2022-09-27T15:15:38.174Z,66.91
2022-09-27T15:18:35.148Z,67.17
2022-09-27T15:21:06.184Z,66.82
2022-09-27T15:23:38.465Z,66.34
2022-09-27T15:26:11.853Z,66.41
2022-09-27T15:28:45.591Z,66.36
2022-09-27T15:31:14.191Z,65.56
2022-09-27T15:33:43.801Z,65.44
2022-09-27T15:36:15.866Z,65.23
2022-09-27T15:38:47.663Z,66.02
2022-09-27T15:41:17.074Z,65.76
2022-09-27T15:43:47.091Z,65.45
2022-09-27T15:46:37.219Z,66.18
2022-09-27T15:49:30.601Z,66.61
2022-09-27T15:52:01.319Z,66.74
2022-09-27T15:54:31.833Z,67.40
2022-09-27T15:57:04.752Z,67.27
2022-09-27T15:59:35.490Z,67.78
2022-09-27T16:02:08.214Z,68.34
2022-09-27T16:04:36.515Z,67.94
2022-09-27T16:07:09.034Z,67.79
2022-09-27T16:09:37.423Z,67.52
2022-09-27T16:12:05.918Z,67.56
2022-09-27T16:14:33.943Z,67.22
2022-09-27T16:17:02.553Z,66.75
2022-09-27T16:19:30.803Z,67.05
2022-09-27T16:22:03.725Z,66.88
2022-09-27T16:24:33.902Z,67.67
2022-09-27T16:27:03.342Z,66.72
2022-09-27T16:29:32.000Z,66.30
2022-09-27T16:32:01.723Z,66.31
2022-09-27T16:34:29.971Z,66.28
2022-09-27T16:37:01.627Z,66.74
2022-09-27T16:39:33.787Z,67.44
2022-09-27T16:42:05.005Z,67.43
2022-09-27T16:44:34.234Z,67.69
2022-09-27T16:47:02.972Z,69.06
2022-09-27T16:49:49.603Z,68.89
2022-09-27T16:52:17.653Z,69.52
2022-09-27T16:54:46.886Z,69.04
2022-09-27T16:57:14.940Z,69.35
2022-09-27T16:59:42.916Z,68.56
2022-09-27T17:02:11.197Z,66.14
2022-09-27T17:04:39.209Z,65.56
2022-09-27T17:07:07.070Z,65.49
2022-09-27T17:09:34.948Z,65.85
2022-09-27T17:12:08.643Z,64.90
2022-09-27T17:14:39.735Z,65.37
2022-09-27T17:17:07.845Z,64.93
2022-09-27T17:19:37.992Z,65.33
2022-09-27T17:22:07.590Z,65.22
2022-09-27T17:24:35.875Z,65.32
2022-09-27T17:27:05.513Z,65.00
2022-09-27T17:29:33.624Z,65.44
2022-09-27T17:32:02.383Z,65.69
2022-09-27T17:34:30.686Z,65.29
2022-09-27T17:37:00.851Z,65.33
2022-09-27T17:39:29.514Z,64.92
2022-09-27T17:41:58.552Z,65.09
2022-09-27T17:44:28.125Z,65.49
2022-09-27T17:47:10.077Z,65.71
2022-09-27T17:49:55.368Z,65.81
2022-09-27T17:52:26.783Z,65.46
2022-09-27T17:54:57.507Z,65.36
2022-09-27T17:57:25.846Z,65.84
2022-09-27T17:59:57.841Z,66.36
2022-09-27T18:02:27.064Z,66.07
2022-09-27T18:04:55.286Z,65.58
2022-09-27T18:07:23.160Z,65.72
2022-09-27T18:09:51.602Z,65.98
2022-09-27T18:12:19.619Z,65.43
2022-09-27T18:14:47.677Z,66.26
2022-09-27T18:17:18.168Z,66.18
2022-09-27T18:19:46.072Z,65.86
2022-09-27T18:22:14.288Z,65.29
2022-09-27T18:24:42.378Z,65.31
2022-09-27T18:27:15.775Z,65.23
2022-09-27T18:29:43.652Z,64.17
2022-09-27T18:32:11.509Z,63.72
2022-09-27T18:34:40.875Z,64.05
2022-09-27T18:37:08.973Z,64.53
2022-09-27T18:39:37.201Z,64.65
2022-09-27T18:42:05.726Z,64.49
2022-09-27T18:44:33.986Z,64.82
2022-09-27T18:47:02.117Z,64.63
2022-09-27T18:49:33.783Z,64.47
2022-09-27T18:52:03.703Z,64.87
2022-09-27T18:54:31.853Z,65.02
2022-09-27T18:57:00.395Z,64.06
2022-09-27T18:59:29.051Z,63.87
2022-09-27T19:01:57.138Z,63.52
2022-09-27T19:04:26.568Z,63.65
2022-09-27T19:06:55.884Z,63.71
2022-09-27T19:09:26.650Z,63.70
2022-09-27T19:11:54.931Z,64.02
2022-09-27T19:14:23.530Z,64.11
2022-09-27T19:16:52.025Z,64.19
2022-09-27T19:19:21.677Z,64.18
2022-09-27T19:21:50.032Z,64.52
2022-09-27T19:24:18.901Z,64.54
2022-09-27T19:26:50.040Z,64.49
2022-09-27T19:29:18.058Z,64.47
2022-09-27T19:31:46.183Z,64.44
2022-09-27T19:34:14.241Z,63.95
2022-09-27T19:36:42.138Z,64.05
2022-09-27T19:39:10.460Z,63.67
2022-09-27T19:41:39.569Z,63.90
2022-09-27T19:44:09.850Z,63.54
2022-09-27T19:46:39.019Z,63.72
2022-09-27T19:49:07.189Z,63.42
2022-09-27T19:51:35.990Z,63.86
2022-09-27T19:54:05.254Z,64.06
2022-09-27T19:56:34.057Z,64.13
2022-09-27T19:59:06.871Z,64.14
2022-09-27T20:01:36.983Z,64.33
2022-09-27T20:04:04.965Z,64.50
2022-09-27T20:06:34.526Z,64.44
2022-09-27T20:09:03.648Z,64.76
2022-09-27T20:11:33.307Z,64.65
2022-09-27T20:14:02.202Z,64.96
2022-09-27T20:16:30.748Z,65.04
2022-09-27T20:19:01.996Z,64.87
2022-09-27T20:21:34.150Z,64.97
2022-09-27T20:24:05.342Z,65.86
2022-09-27T20:26:34.579Z,65.28
2022-09-27T20:29:04.020Z,65.51
2022-09-27T20:31:34.271Z,64.94
2022-09-27T20:34:04.453Z,65.34
2022-09-27T20:36:36.469Z,65.27
2022-09-27T20:39:06.046Z,65.13
2022-09-27T20:41:36.881Z,65.34
2022-09-27T20:44:07.118Z,65.43
2022-09-27T20:46:36.217Z,64.92
2022-09-27T20:49:08.060Z,65.03
2022-09-27T20:51:39.241Z,65.81
2022-09-27T20:54:09.241Z,65.99
2022-09-27T20:56:40.682Z,66.24
2022-09-27T20:59:15.047Z,65.25
2022-09-27T21:01:44.586Z,65.15
2022-09-27T21:04:16.812Z,65.52
2022-09-27T21:06:45.310Z,65.30
2022-09-27T21:09:19.396Z,65.27
2022-09-27T21:11:48.409Z,65.17
2022-09-27T21:14:16.473Z,64.91
2022-09-27T21:16:44.527Z,65.22
2022-09-27T21:19:14.316Z,65.07
2022-09-27T21:21:42.297Z,64.99
2022-09-27T21:24:10.210Z,64.97
2022-09-27T21:26:38.136Z,65.18
2022-09-27T21:29:09.098Z,65.32
2022-09-27T21:31:38.063Z,64.95
2022-09-27T21:34:07.147Z,64.88
2022-09-27T21:36:38.440Z,65.12
2022-09-27T21:39:08.496Z,64.95
2022-09-27T21:41:37.413Z,64.86
2022-09-27T21:44:06.602Z,65.18
2022-09-27T21:46:34.910Z,64.38
2022-09-27T21:49:03.800Z,64.41
2022-09-27T21:51:33.773Z,65.01
2022-09-27T21:54:06.208Z,65.10
2022-09-27T21:56:36.266Z,65.55
2022-09-27T21:59:05.893Z,64.52
2022-09-27T22:01:35.462Z,65.09
2022-09-27T22:04:06.523Z,64.52
2022-09-27T22:06:36.522Z,64.55
2022-09-27T22:09:07.562Z,64.12
2022-09-27T22:11:38.016Z,63.75
2022-09-27T22:14:10.599Z,63.88
2022-09-27T22:16:41.394Z,64.25
2022-09-27T22:19:23.399Z,64.15
2022-09-27T22:22:00.398Z,63.82
2022-09-27T22:24:48.704Z,64.34
2022-09-27T22:27:19.095Z,64.07
2022-09-27T22:29:53.051Z,63.21
2022-09-27T22:32:31.560Z,63.92
2022-09-27T22:35:04.759Z,63.81
2022-09-27T22:37:34.842Z,64.22
2022-09-27T22:40:22.369Z,64.24
2022-09-27T22:42:57.512Z,64.20
2022-09-27T22:45:28.836Z,64.50
2022-09-27T22:48:02.822Z,64.78
2022-09-27T22:50:32.584Z,64.26
2022-09-27T22:53:02.418Z,64.42
2022-09-27T22:55:36.285Z,64.72
2022-09-27T22:58:07.683Z,64.90
2022-09-27T23:00:39.474Z,64.10
2022-09-27T23:03:08.516Z,64.12
2022-09-27T23:05:38.818Z,64.36
2022-09-27T23:12:39.769Z,64.19
2022-09-27T23:15:20.691Z,63.59
2022-09-27T23:17:53.862Z,63.94
2022-09-27T23:20:36.503Z,63.99
2022-09-27T23:23:09.497Z,63.64
2022-09-27T23:25:42.718Z,63.58
2022-09-27T23:28:14.510Z,64.00
2022-09-27T23:30:43.219Z,64.14
2022-09-27T23:33:26.735Z,64.42
2022-09-27T23:36:06.787Z,64.12
2022-09-27T23:38:44.046Z,64.01
2022-09-27T23:41:15.812Z,64.36
2022-09-27T23:43:46.524Z,64.41
2022-09-27T23:46:15.442Z,64.20
2022-09-27T23:48:44.559Z,63.94
2022-09-27T23:51:13.124Z,63.93
2022-09-27T23:53:41.050Z,64.44
2022-09-27T23:56:11.773Z,64.38
2022-09-27T23:58:41.118Z,64.65
